Time;durP1;ratioP1;P1;durP2;ratioP2;P2;SDS_P1;SDS_P2;PMS_P1;PMS_P2;Temp;Humidity;BMP_temperature;BMP_pressure;BME280_temperature;BME280_humidity;BME280_pressure;Samples;Min_cycle;Max_cycle;Signal;HPM_P1;HPM_P2
2023/07/28 00:00:44;;;;;;;2.70;2.03;;;16.40;99.90;;;;;;5077111;28;20479;-68
2023/07/28 00:03:12;;;;;;;3.15;2.10;;;16.40;99.90;;;;;;5077735;28;20446;-69
2023/07/28 00:05:38;;;;;;;3.20;2.20;;;16.40;99.90;;;;;;5071820;28;20416;-69
2023/07/28 00:08:05;;;;;;;3.30;2.40;;;16.40;99.90;;;;;;5062644;28;20436;-68
2023/07/28 00:10:32;;;;;;;3.50;2.38;;;16.40;99.90;;;;;;5072636;28;20420;-68
2023/07/28 00:13:01;;;;;;;3.97;2.30;;;16.40;99.90;;;;;;5092904;28;20406;-68
2023/07/28 00:15:27;;;;;;;3.50;2.20;;;16.40;99.90;;;;;;5085379;28;20513;-69
2023/07/28 00:17:54;;;;;;;3.40;2.50;;;16.40;99.90;;;;;;5064670;28;20912;-70
2023/07/28 00:20:22;;;;;;;4.15;2.00;;;16.40;99.90;;;;;;5067034;28;20427;-68
2023/07/28 00:22:49;;;;;;;3.20;2.10;;;16.40;99.90;;;;;;5084105;28;20429;-69
2023/07/28 00:25:15;;;;;;;3.95;2.28;;;16.40;99.90;;;;;;5084419;28;20417;-69
2023/07/28 00:27:42;;;;;;;2.30;1.92;;;16.40;99.90;;;;;;5054513;28;20808;-68
2023/07/28 00:30:10;;;;;;;3.88;2.75;;;16.40;99.90;;;;;;5068331;28;20422;-69
2023/07/28 00:32:37;;;;;;;4.68;2.50;;;16.40;99.90;;;;;;5075633;28;20434;-68
2023/07/28 00:35:04;;;;;;;2.60;2.33;;;16.40;99.90;;;;;;5069249;28;20760;-69
2023/07/28 00:37:32;;;;;;;2.70;2.05;;;16.40;99.90;;;;;;5068692;28;20869;-69
2023/07/28 00:39:59;;;;;;;3.40;2.05;;;16.40;99.90;;;;;;5077090;28;20414;-68
2023/07/28 00:42:26;;;;;;;2.92;2.00;;;16.40;99.90;;;;;;5083321;28;20416;-70
2023/07/28 00:44:52;;;;;;;2.75;2.15;;;16.40;99.90;;;;;;5074094;28;20435;-69
2023/07/28 00:47:19;;;;;;;3.28;2.17;;;16.40;99.90;;;;;;5073059;28;20916;-67
2023/07/28 00:49:46;;;;;;;3.30;1.83;;;16.40;99.90;;;;;;5079631;28;20430;-68
2023/07/28 00:52:13;;;;;;;2.22;1.70;;;16.40;99.90;;;;;;5072412;28;20428;-68
2023/07/28 00:54:41;;;;;;;2.58;1.63;;;16.40;99.90;;;;;;5062918;28;20467;-69
2023/07/28 00:57:08;;;;;;;3.20;1.77;;;16.50;99.90;;;;;;5077729;28;20419;-68
2023/07/28 00:59:35;;;;;;;2.47;1.73;;;16.50;99.90;;;;;;5086654;28;20419;-70
2023/07/28 01:02:02;;;;;;;2.30;1.55;;;16.50;99.90;;;;;;5083600;28;20392;-70
2023/07/28 01:04:29;;;;;;;3.00;1.73;;;16.50;99.90;;;;;;5083408;28;20422;-69
2023/07/28 01:07:09;;;;;;;3.10;2.00;;;16.40;99.90;;;;;;5097826;28;20407;-69
2023/07/28 01:09:44;;;;;;;2.90;1.80;;;16.40;99.90;;;;;;5087068;28;21924;-69
2023/07/28 01:12:10;;;;;;;2.50;1.80;;;16.40;99.90;;;;;;5090973;28;20423;-70
2023/07/28 01:14:37;;;;;;;2.50;1.52;;;16.40;99.90;;;;;;5081231;28;20451;-69
2023/07/28 01:17:04;;;;;;;2.00;1.70;;;16.40;99.90;;;;;;5069170;28;20419;-68
2023/07/28 01:19:31;;;;;;;4.65;1.63;;;16.50;99.90;;;;;;5070392;28;20489;-69
2023/07/28 01:22:14;;;;;;;2.08;1.45;;;16.40;99.90;;;;;;5075825;28;20512;-70
2023/07/28 01:24:52;;;;;;;2.00;1.30;;;16.50;99.90;;;;;;5071934;28;20440;-69
2023/07/28 01:27:21;;;;;;;2.30;1.30;;;16.40;99.90;;;;;;5068290;28;20429;-68
2023/07/28 01:29:49;;;;;;;1.60;1.10;;;16.50;99.90;;;;;;5069915;28;21055;-68
2023/07/28 01:32:15;;;;;;;1.77;1.30;;;16.50;99.90;;;;;;5074909;28;20429;-69
2023/07/28 01:34:42;;;;;;;1.80;1.13;;;16.50;99.90;;;;;;5067026;28;20929;-68
2023/07/28 01:37:09;;;;;;;2.72;1.15;;;16.50;99.90;;;;;;5072533;28;20429;-69
2023/07/28 01:39:35;;;;;;;1.83;1.20;;;16.50;99.90;;;;;;5083314;28;20446;-69
2023/07/28 01:42:02;;;;;;;1.80;1.30;;;16.50;99.90;;;;;;5079760;28;20405;-69
2023/07/28 01:44:30;;;;;;;2.80;1.30;;;16.50;99.90;;;;;;5067784;28;20427;-68
2023/07/28 01:46:57;;;;;;;1.90;1.42;;;16.60;99.90;;;;;;5079761;28;20426;-70
2023/07/28 01:49:24;;;;;;;2.80;1.60;;;16.60;99.90;;;;;;5078833;28;20432;-68
2023/07/28 01:51:51;;;;;;;1.80;1.40;;;16.60;99.90;;;;;;5074036;28;20426;-68
2023/07/28 01:54:17;;;;;;;3.08;1.67;;;16.60;99.90;;;;;;5087749;28;20417;-70
2023/07/28 01:56:44;;;;;;;2.40;1.60;;;16.60;99.90;;;;;;5077956;28;20446;-68
2023/07/28 01:59:11;;;;;;;1.70;1.40;;;16.60;99.90;;;;;;5064528;28;20438;-68
2023/07/28 02:01:39;;;;;;;2.20;1.60;;;16.60;99.90;;;;;;5082715;28;20458;-68
2023/07/28 02:04:06;;;;;;;1.80;1.42;;;16.60;99.90;;;;;;5068831;28;20586;-69
2023/07/28 02:06:32;;;;;;;2.05;1.30;;;16.60;99.90;;;;;;5071927;28;20893;-69
2023/07/28 02:08:59;;;;;;;2.60;1.50;;;16.60;99.90;;;;;;5064724;28;20773;-69
2023/07/28 02:11:25;;;;;;;1.90;1.40;;;16.60;99.90;;;;;;5079702;28;20435;-68
2023/07/28 02:13:52;;;;;;;3.50;1.50;;;16.60;99.90;;;;;;5086379;28;20421;-68
2023/07/28 02:16:19;;;;;;;3.08;1.90;;;16.60;99.90;;;;;;5072572;28;20415;-70
2023/07/28 02:18:47;;;;;;;2.90;1.40;;;16.60;99.90;;;;;;5064411;28;20444;-70
2023/07/28 02:21:13;;;;;;;2.38;1.70;;;16.60;99.90;;;;;;5085926;28;20415;-70
2023/07/28 02:23:40;;;;;;;2.40;1.80;;;16.60;99.90;;;;;;5089702;28;20413;-68
2023/07/28 02:26:07;;;;;;;4.18;2.08;;;16.60;99.90;;;;;;5070538;28;20427;-70
2023/07/28 02:28:33;;;;;;;2.42;1.63;;;16.60;99.90;;;;;;5068851;28;20419;-69
2023/07/28 02:31:00;;;;;;;2.25;1.80;;;16.60;99.90;;;;;;5075578;28;20420;-69
2023/07/28 02:33:29;;;;;;;5.90;2.50;;;16.70;99.90;;;;;;5084189;28;20429;-69
2023/07/28 02:35:57;;;;;;;2.70;2.40;;;16.70;99.90;;;;;;5068474;28;20443;-68
2023/07/28 02:38:24;;;;;;;2.90;2.42;;;16.70;99.90;;;;;;5084807;28;20498;-68
2023/07/28 02:40:51;;;;;;;4.50;2.92;;;16.70;99.90;;;;;;5074777;28;20434;-68
2023/07/28 02:43:17;;;;;;;3.20;2.60;;;16.70;99.90;;;;;;5068017;28;20418;-68
2023/07/28 02:45:44;;;;;;;2.90;2.40;;;16.70;99.90;;;;;;5074389;28;20421;-67
2023/07/28 02:48:11;;;;;;;3.00;2.35;;;16.60;99.90;;;;;;5082708;28;20436;-69
2023/07/28 02:50:38;;;;;;;2.60;2.40;;;16.60;99.90;;;;;;5077203;28;20972;-69
2023/07/28 02:53:06;;;;;;;2.60;2.05;;;16.70;99.90;;;;;;5070816;28;20433;-68
2023/07/28 02:55:33;;;;;;;2.60;1.70;;;16.60;99.90;;;;;;5068220;28;20905;-69
2023/07/28 02:57:59;;;;;;;2.95;1.70;;;16.60;99.90;;;;;;5083439;28;20418;-68
2023/07/28 03:00:26;;;;;;;2.17;1.60;;;16.60;99.90;;;;;;5075211;28;20427;-68
2023/07/28 03:02:53;;;;;;;2.70;1.40;;;16.60;99.90;;;;;;5081145;28;20760;-69
2023/07/28 03:05:19;;;;;;;1.83;1.20;;;16.60;99.90;;;;;;5068570;28;20431;-68
2023/07/28 03:07:48;;;;;;;2.22;1.02;;;16.60;99.90;;;;;;5079585;28;20956;-69
2023/07/28 03:10:17;;;;;;;2.25;1.30;;;16.60;99.90;;;;;;5069674;28;20420;-69
2023/07/28 03:12:44;;;;;;;2.40;1.60;;;16.60;99.90;;;;;;5067158;28;20418;-69
2023/07/28 03:15:10;;;;;;;3.67;1.60;;;16.60;99.90;;;;;;5069975;28;20783;-69
2023/07/28 03:17:37;;;;;;;1.65;1.30;;;16.70;99.90;;;;;;5083473;28;20429;-68
2023/07/28 03:20:05;;;;;;;2.22;1.60;;;16.70;99.90;;;;;;5074543;28;20722;-68
2023/07/28 03:22:31;;;;;;;2.60;1.50;;;16.70;99.90;;;;;;5069911;28;20492;-68
2023/07/28 03:24:58;;;;;;;2.40;1.45;;;16.70;99.90;;;;;;5075928;28;20808;-69
2023/07/28 03:27:26;;;;;;;2.40;1.40;;;16.70;99.90;;;;;;5075391;28;20431;-68
2023/07/28 03:29:53;;;;;;;2.87;1.50;;;16.60;99.90;;;;;;5081626;28;20411;-69
2023/07/28 03:32:19;;;;;;;3.10;1.50;;;16.60;99.90;;;;;;5068837;28;20435;-68
2023/07/28 03:34:46;;;;;;;2.03;1.40;;;16.60;99.90;;;;;;5080299;28;20426;-69
2023/07/28 03:37:13;;;;;;;2.58;1.42;;;16.60;99.90;;;;;;5075344;28;20900;-69
2023/07/28 03:39:40;;;;;;;2.20;1.55;;;16.60;99.90;;;;;;5082454;28;20419;-69
2023/07/28 03:42:08;;;;;;;2.97;1.60;;;16.60;99.90;;;;;;5084385;28;20408;-68
2023/07/28 03:44:37;;;;;;;2.65;1.55;;;16.60;99.90;;;;;;5077440;28;20794;-68
2023/07/28 03:47:04;;;;;;;2.00;1.80;;;16.60;99.90;;;;;;5081121;28;20416;-68
2023/07/28 03:49:31;;;;;;;4.30;1.98;;;16.60;99.90;;;;;;5083851;28;20466;-68
2023/07/28 03:51:58;;;;;;;1.90;1.52;;;16.60;99.90;;;;;;5067282;28;20430;-68
2023/07/28 03:54:24;;;;;;;3.00;1.65;;;16.60;99.90;;;;;;5084123;28;20425;-69
2023/07/28 03:56:51;;;;;;;2.25;2.00;;;16.70;99.90;;;;;;5071519;28;20430;-69
2023/07/28 03:59:18;;;;;;;2.70;2.00;;;16.70;99.90;;;;;;5066739;28;20488;-70
2023/07/28 04:01:47;;;;;;;2.90;1.80;;;16.70;99.90;;;;;;5080889;28;20409;-70
2023/07/28 04:04:14;;;;;;;2.00;1.80;;;16.70;99.90;;;;;;5078594;28;20412;-69
2023/07/28 04:06:42;;;;;;;2.50;1.80;;;16.70;99.90;;;;;;5065477;28;20630;-69
2023/07/28 04:09:09;;;;;;;2.92;1.77;;;16.70;99.90;;;;;;5077241;28;20468;-69
2023/07/28 04:11:36;;;;;;;2.17;1.90;;;16.70;99.90;;;;;;5077275;28;20420;-69
2023/07/28 04:14:03;;;;;;;2.47;1.73;;;16.70;99.90;;;;;;5070499;28;20462;-69
2023/07/28 04:16:29;;;;;;;2.45;1.70;;;16.70;99.90;;;;;;5066674;28;20466;-70
2023/07/28 04:18:58;;;;;;;2.70;1.95;;;16.70;99.90;;;;;;5081238;28;20409;-69
2023/07/28 04:21:25;;;;;;;2.47;1.90;;;16.70;99.90;;;;;;5072566;28;20439;-69
2023/07/28 04:23:52;;;;;;;2.33;1.70;;;16.70;99.90;;;;;;5076838;28;20786;-69
2023/07/28 04:26:19;;;;;;;2.20;1.97;;;16.70;99.90;;;;;;5074175;28;20438;-70
2023/07/28 04:28:45;;;;;;;2.00;1.60;;;16.70;99.90;;;;;;5081636;28;20434;-69
2023/07/28 04:31:12;;;;;;;2.80;1.73;;;16.70;99.90;;;;;;5070100;28;20422;-68
2023/07/28 04:33:41;;;;;;;2.20;1.52;;;16.70;99.90;;;;;;5077054;28;20423;-68
2023/07/28 04:36:11;;;;;;;2.67;1.60;;;16.70;99.90;;;;;;5063165;28;20874;-68
2023/07/28 04:38:38;;;;;;;2.10;1.60;;;16.70;99.90;;;;;;5071702;28;20699;-69
2023/07/28 04:41:04;;;;;;;3.70;1.60;;;16.80;99.90;;;;;;5076463;28;20415;-69
2023/07/28 04:43:31;;;;;;;3.03;1.70;;;16.80;99.90;;;;;;5060295;28;20649;-70
2023/07/28 04:45:58;;;;;;;2.47;1.67;;;16.80;99.90;;;;;;5072421;28;20426;-70
2023/07/28 04:48:25;;;;;;;2.65;1.70;;;16.80;99.90;;;;;;5065392;28;20790;-70
2023/07/28 04:50:51;;;;;;;2.20;1.60;;;16.80;99.90;;;;;;5066238;28;20638;-69
2023/07/28 04:53:19;;;;;;;2.70;1.70;;;16.80;99.90;;;;;;5080850;28;20448;-70
2023/07/28 04:55:46;;;;;;;3.80;2.15;;;16.80;99.90;;;;;;5076461;28;20439;-69
2023/07/28 04:58:13;;;;;;;4.93;2.10;;;16.90;99.90;;;;;;5074950;28;20416;-69
2023/07/28 05:00:39;;;;;;;3.88;2.00;;;16.90;99.90;;;;;;5074192;28;21030;-69
2023/07/28 05:03:06;;;;;;;4.72;2.08;;;16.90;99.90;;;;;;5069255;28;20409;-69
2023/07/28 05:05:33;;;;;;;4.32;1.98;;;16.90;99.90;;;;;;5061385;28;20791;-69
2023/07/28 05:07:59;;;;;;;2.88;1.80;;;17.00;99.90;;;;;;5076450;28;20903;-69
2023/07/28 05:10:27;;;;;;;4.13;2.15;;;17.00;99.90;;;;;;5077093;28;20411;-68
2023/07/28 05:12:54;;;;;;;5.22;2.55;;;17.00;99.90;;;;;;5057394;28;20425;-69
2023/07/28 05:15:21;;;;;;;2.80;2.00;;;17.00;99.90;;;;;;5064923;28;20500;-69
2023/07/28 05:17:48;;;;;;;3.10;1.80;;;17.00;99.90;;;;;;5056172;28;20438;-69
2023/07/28 05:20:16;;;;;;;4.60;2.60;;;17.00;99.90;;;;;;5075565;28;20470;-70
2023/07/28 05:22:42;;;;;;;3.42;2.63;;;17.00;99.90;;;;;;5060115;28;21481;-69
2023/07/28 05:25:09;;;;;;;5.00;2.30;;;17.00;99.90;;;;;;5064763;28;20416;-69
2023/07/28 05:27:39;;;;;;;5.50;2.88;;;17.00;99.90;;;;;;5075295;28;20454;-70
2023/07/28 05:30:07;;;;;;;5.20;2.63;;;17.00;99.90;;;;;;5068319;28;20476;-68
2023/07/28 05:32:33;;;;;;;4.27;2.93;;;17.10;99.90;;;;;;5071161;28;20921;-69
2023/07/28 05:35:00;;;;;;;4.55;2.72;;;17.10;99.90;;;;;;5099002;23;20434;-71
2023/07/28 05:37:27;;;;;;;5.03;2.60;;;17.10;99.90;;;;;;5082140;28;20490;-70
2023/07/28 05:39:54;;;;;;;3.25;1.88;;;17.10;99.90;;;;;;5081144;28;20421;-71
2023/07/28 05:42:21;;;;;;;3.78;2.10;;;17.10;99.90;;;;;;5084668;28;20781;-76
2023/07/28 05:44:49;;;;;;;4.20;1.50;;;17.10;99.90;;;;;;5077822;28;20430;-70
2023/07/28 05:47:16;;;;;;;2.33;1.37;;;17.20;99.90;;;;;;5081915;28;20427;-69
2023/07/28 05:49:42;;;;;;;2.10;1.00;;;17.20;99.90;;;;;;5079926;28;20764;-70
2023/07/28 05:52:09;;;;;;;2.00;1.20;;;17.20;99.90;;;;;;5078529;28;20433;-70
2023/07/28 05:54:36;;;;;;;2.17;1.25;;;17.20;99.90;;;;;;5077815;28;20460;-70
2023/07/28 05:57:03;;;;;;;1.50;1.20;;;17.20;99.90;;;;;;5085217;28;20426;-70
2023/07/28 05:59:30;;;;;;;2.38;1.10;;;17.30;99.90;;;;;;5083682;28;20430;-70
2023/07/28 06:01:58;;;;;;;2.72;1.30;;;17.20;99.90;;;;;;5084969;28;20430;-70
2023/07/28 06:04:24;;;;;;;1.77;1.10;;;17.30;99.90;;;;;;5084217;28;20537;-70
2023/07/28 06:06:51;;;;;;;2.37;1.10;;;17.30;99.90;;;;;;5081179;28;20428;-71
2023/07/28 06:09:18;;;;;;;1.17;0.63;;;17.40;99.90;;;;;;5078922;28;20442;-69
2023/07/28 06:11:45;;;;;;;2.20;0.70;;;17.40;99.90;;;;;;5078511;28;20426;-70
2023/07/28 06:14:12;;;;;;;2.20;1.00;;;17.40;99.90;;;;;;5085920;28;20748;-70
2023/07/28 06:16:39;;;;;;;1.60;0.90;;;17.40;99.90;;;;;;5076704;28;20526;-70
2023/07/28 06:19:08;;;;;;;2.42;1.30;;;17.50;99.90;;;;;;5081419;28;20465;-70
2023/07/28 06:21:35;;;;;;;4.07;1.20;;;17.50;99.90;;;;;;5085583;28;21008;-70
2023/07/28 06:24:01;;;;;;;1.88;1.27;;;17.50;99.90;;;;;;5083171;28;20437;-70
2023/07/28 06:26:28;;;;;;;3.00;1.90;;;17.50;99.90;;;;;;5083420;28;20430;-69
2023/07/28 06:28:55;;;;;;;2.30;1.60;;;17.50;99.90;;;;;;5076919;28;20811;-69
2023/07/28 06:31:22;;;;;;;2.07;1.60;;;17.50;99.90;;;;;;5082386;28;20484;-69
2023/07/28 06:33:48;;;;;;;2.45;1.90;;;17.60;99.90;;;;;;5082736;28;20426;-69
2023/07/28 06:36:17;;;;;;;2.80;2.00;;;17.60;99.90;;;;;;5088081;28;21040;-70
2023/07/28 06:38:48;;;;;;;2.70;2.30;;;17.60;99.90;;;;;;5083569;28;20441;-69
2023/07/28 06:41:14;;;;;;;2.30;1.80;;;17.60;99.90;;;;;;5086386;28;20458;-69
2023/07/28 06:43:41;;;;;;;2.20;1.90;;;17.60;99.90;;;;;;5081900;28;20432;-69
2023/07/28 06:46:08;;;;;;;2.50;2.30;;;17.60;99.90;;;;;;5084238;28;20425;-68
2023/07/28 06:48:35;;;;;;;2.10;1.90;;;17.70;99.90;;;;;;5073647;28;20427;-67
2023/07/28 06:51:01;;;;;;;2.70;2.20;;;17.70;99.90;;;;;;5080672;28;20434;-68
2023/07/28 06:53:29;;;;;;;2.60;2.00;;;17.70;99.90;;;;;;5079354;28;20744;-77
2023/07/28 06:55:56;;;;;;;2.45;2.25;;;17.70;99.90;;;;;;5087083;28;20460;-78
2023/07/28 06:58:23;;;;;;;6.27;5.67;;;17.70;99.90;;;;;;5086614;28;20446;-74
2023/07/28 07:00:50;;;;;;;4.00;3.60;;;17.70;99.90;;;;;;5068207;28;20530;-74
2023/07/28 07:03:17;;;;;;;3.30;2.58;;;17.70;99.90;;;;;;5079483;28;20424;-64
2023/07/28 07:05:44;;;;;;;2.90;2.70;;;17.70;99.90;;;;;;5087845;28;21117;-63
2023/07/28 07:08:10;;;;;;;2.70;2.47;;;17.70;99.90;;;;;;5077883;28;20425;-66
2023/07/28 07:10:38;;;;;;;3.50;3.20;;;17.70;99.90;;;;;;5079444;28;20430;-66
2023/07/28 07:13:05;;;;;;;3.28;2.80;;;17.80;99.90;;;;;;5085252;28;20426;-66
2023/07/28 07:15:35;;;;;;;3.00;2.70;;;17.80;99.90;;;;;;5078557;28;20848;-64
2023/07/28 07:18:02;;;;;;;2.90;2.70;;;17.80;99.90;;;;;;5081582;28;20479;-66
2023/07/28 07:20:29;;;;;;;3.05;2.85;;;17.80;99.90;;;;;;5082855;28;20463;-64
2023/07/28 07:22:55;;;;;;;3.00;2.70;;;17.80;99.90;;;;;;5072894;28;20434;-65
2023/07/28 07:25:22;;;;;;;3.63;3.00;;;17.90;99.90;;;;;;5079878;28;20446;-65
2023/07/28 07:27:50;;;;;;;3.92;3.05;;;17.90;99.90;;;;;;5079672;28;20441;-67
2023/07/28 07:30:17;;;;;;;3.20;2.90;;;17.90;99.90;;;;;;5074608;28;20535;-63
2023/07/28 07:32:44;;;;;;;3.78;3.38;;;17.90;99.90;;;;;;5075723;28;20429;-62
2023/07/28 07:35:12;;;;;;;4.38;3.40;;;18.00;99.90;;;;;;5075866;28;20422;-64
2023/07/28 07:37:39;;;;;;;3.80;3.28;;;18.00;99.90;;;;;;5077592;28;20931;-64
2023/07/28 07:40:07;;;;;;;3.87;2.80;;;18.00;99.90;;;;;;5077883;28;20822;-64
2023/07/28 07:42:42;;;;;;;3.70;3.40;;;18.00;99.90;;;;;;5076228;28;20558;-64
2023/07/28 07:45:11;;;;;;;3.30;3.00;;;18.00;99.90;;;;;;5075962;28;20426;-62
2023/07/28 07:47:39;;;;;;;3.50;3.20;;;18.00;99.90;;;;;;5076039;28;20437;-64
2023/07/28 07:50:08;;;;;;;3.40;3.10;;;18.00;99.90;;;;;;5077506;28;20433;-64
2023/07/28 07:52:35;;;;;;;3.90;3.50;;;18.10;99.90;;;;;;5075648;28;20440;-63
2023/07/28 07:55:02;;;;;;;3.83;3.25;;;18.10;99.90;;;;;;5077405;28;20927;-64
2023/07/28 07:57:29;;;;;;;4.05;3.75;;;18.10;99.90;;;;;;5081383;28;20425;-63
2023/07/28 07:59:56;;;;;;;4.20;3.60;;;18.10;99.90;;;;;;5084451;28;20429;-64
2023/07/28 08:02:24;;;;;;;3.80;3.50;;;18.20;99.90;;;;;;5081952;28;20441;-63
2023/07/28 08:04:53;;;;;;;3.22;2.92;;;18.30;99.90;;;;;;5083793;28;20520;-68
2023/07/28 08:07:19;;;;;;;3.70;3.35;;;18.40;99.90;;;;;;5083261;28;20419;-66
2023/07/28 08:09:46;;;;;;;3.47;3.17;;;18.40;99.90;;;;;;5076423;28;20938;-65
2023/07/28 08:12:13;;;;;;;4.80;3.20;;;18.50;99.90;;;;;;5083879;28;20452;-64
2023/07/28 08:14:40;;;;;;;3.83;3.53;;;18.60;99.90;;;;;;5085213;28;20434;-64
2023/07/28 08:17:07;;;;;;;3.50;3.20;;;18.70;99.90;;;;;;5086835;28;20927;-64
2023/07/28 08:19:35;;;;;;;3.30;3.10;;;18.80;99.90;;;;;;5078323;28;20434;-64
2023/07/28 08:22:03;;;;;;;3.00;2.80;;;18.90;99.90;;;;;;5082824;28;20425;-64
2023/07/28 08:24:30;;;;;;;3.20;2.90;;;19.00;99.90;;;;;;5080129;28;20917;-63
2023/07/28 08:26:57;;;;;;;3.30;3.00;;;19.20;99.90;;;;;;5075816;28;20429;-65
2023/07/28 08:29:24;;;;;;;4.38;2.90;;;19.40;99.90;;;;;;5075904;28;20452;-66
2023/07/28 08:31:51;;;;;;;5.10;3.08;;;19.50;99.90;;;;;;5079773;28;20414;-63
2023/07/28 08:34:18;;;;;;;2.90;2.55;;;19.60;99.90;;;;;;5082887;28;20430;-63
2023/07/28 08:36:46;;;;;;;2.97;2.67;;;19.70;99.90;;;;;;5079933;28;21002;-62
2023/07/28 08:39:14;;;;;;;7.70;3.27;;;19.80;99.90;;;;;;5083839;28;20429;-75
2023/07/28 08:41:41;;;;;;;3.88;2.40;;;19.80;99.90;;;;;;5082502;28;20429;-63
2023/07/28 08:44:08;;;;;;;2.33;2.03;;;19.80;99.90;;;;;;5082856;28;20422;-65
2023/07/28 08:46:35;;;;;;;2.33;2.13;;;19.80;99.90;;;;;;5086209;28;20708;-64
2023/07/28 08:49:02;;;;;;;2.90;1.95;;;19.90;99.90;;;;;;5084577;28;20430;-65
2023/07/28 08:51:29;;;;;;;2.20;1.70;;;19.90;99.90;;;;;;5085884;28;20429;-66
2023/07/28 08:53:57;;;;;;;2.23;1.53;;;20.00;99.90;;;;;;5085374;28;20430;-66
2023/07/28 08:56:26;;;;;;;1.80;1.40;;;20.10;99.90;;;;;;5083450;28;20931;-66
2023/07/28 08:58:58;;;;;;;1.50;1.40;;;20.20;99.90;;;;;;5082513;28;20437;-66
2023/07/28 09:01:25;;;;;;;1.90;1.50;;;20.30;99.90;;;;;;5081621;28;20981;-64
2023/07/28 09:03:52;;;;;;;1.65;1.52;;;20.40;99.90;;;;;;5085542;28;20491;-65
2023/07/28 09:06:19;;;;;;;1.60;1.30;;;20.50;99.90;;;;;;5082855;28;20434;-65
2023/07/28 09:08:46;;;;;;;1.93;1.40;;;20.60;99.90;;;;;;5082633;28;20461;-65
2023/07/28 09:11:14;;;;;;;2.30;1.63;;;20.70;99.90;;;;;;5082246;28;20429;-64
2023/07/28 09:13:42;;;;;;;2.30;1.60;;;20.90;99.90;;;;;;5081417;28;20431;-66
2023/07/28 09:16:18;;;;;;;2.33;1.40;;;21.10;99.90;;;;;;5082166;28;20435;-65
2023/07/28 09:18:45;;;;;;;2.47;1.45;;;21.30;99.90;;;;;;5082791;28;20793;-64
2023/07/28 09:21:18;;;;;;;2.77;1.40;;;21.40;99.90;;;;;;5083882;28;20951;-66
2023/07/28 09:23:45;;;;;;;4.60;1.73;;;21.70;99.90;;;;;;5087241;28;20981;-66
2023/07/28 09:26:14;;;;;;;1.50;0.88;;;22.00;99.90;;;;;;5080528;28;20505;-66
2023/07/28 09:28:42;;;;;;;1.90;1.00;;;22.20;99.90;;;;;;5085608;28;20591;-66
2023/07/28 09:31:10;;;;;;;1.13;1.00;;;22.20;99.90;;;;;;5079410;28;20431;-66
2023/07/28 09:33:37;;;;;;;1.40;1.10;;;22.00;99.90;;;;;;5083244;28;20442;-65
2023/07/28 09:36:11;;;;;;;1.15;0.98;;;21.90;99.90;;;;;;5084915;28;20627;-66
2023/07/28 09:38:40;;;;;;;1.10;1.00;;;21.80;99.90;;;;;;5085887;28;20417;-66
2023/07/28 09:41:09;;;;;;;1.20;1.10;;;21.60;99.90;;;;;;5082021;28;20461;-65
2023/07/28 09:43:37;;;;;;;1.90;1.00;;;21.50;99.90;;;;;;5086225;28;20429;-65
2023/07/28 09:46:06;;;;;;;1.60;1.07;;;21.40;99.90;;;;;;5087209;28;20421;-66
2023/07/28 09:48:34;;;;;;;2.33;1.00;;;21.40;99.90;;;;;;5086147;28;20425;-66
2023/07/28 09:51:06;;;;;;;1.20;1.05;;;21.40;99.90;;;;;;5078057;28;20482;-65
2023/07/28 09:53:36;;;;;;;1.20;0.93;;;21.40;99.90;;;;;;5084618;28;20433;-66
2023/07/28 09:56:03;;;;;;;1.30;1.00;;;21.50;99.90;;;;;;5081547;28;20414;-65
2023/07/28 09:58:34;;;;;;;4.40;1.40;;;21.40;99.90;;;;;;5083231;28;20429;-65
2023/07/28 10:01:05;;;;;;;2.00;1.50;;;21.50;99.90;;;;;;5085493;28;20443;-65
2023/07/28 10:03:33;;;;;;;1.52;0.90;;;21.60;99.90;;;;;;5080086;28;20461;-65
2023/07/28 10:06:01;;;;;;;3.90;1.30;;;21.70;99.90;;;;;;5076778;28;20434;-66
2023/07/28 10:08:28;;;;;;;1.40;0.90;;;21.80;99.90;;;;;;5089877;28;20418;-66
2023/07/28 10:10:55;;;;;;;2.10;1.00;;;22.00;99.90;;;;;;5091513;28;20429;-65
2023/07/28 10:13:23;;;;;;;2.75;1.67;;;22.10;99.90;;;;;;5086684;28;20436;-65
2023/07/28 10:15:51;;;;;;;1.45;1.00;;;22.10;99.90;;;;;;5087579;28;20437;-65
2023/07/28 10:18:21;;;;;;;3.10;1.50;;;22.20;99.90;;;;;;5093948;28;20413;-65
2023/07/28 10:20:49;;;;;;;1.30;1.10;;;22.20;99.90;;;;;;5092237;28;20422;-65
2023/07/28 10:23:17;;;;;;;2.88;1.70;;;22.30;99.90;;;;;;5092994;28;20430;-66
2023/07/28 10:25:45;;;;;;;1.10;0.80;;;22.50;99.90;;;;;;5089160;28;20505;-66
2023/07/28 10:28:28;;;;;;;1.00;0.80;;;22.60;97.50;;;;;;5085357;28;20425;-66
2023/07/28 10:30:56;;;;;;;0.90;0.73;;;22.60;96.70;;;;;;5087705;28;20418;-64
2023/07/28 10:33:33;;;;;;;1.00;0.70;;;22.60;97.20;;;;;;5088468;28;20885;-65
2023/07/28 10:36:00;;;;;;;1.38;0.70;;;22.70;96.30;;;;;;5089912;28;20461;-65
2023/07/28 10:38:33;;;;;;;0.90;0.70;;;22.80;96.20;;;;;;5089165;28;20426;-65
2023/07/28 10:41:08;;;;;;;1.08;0.80;;;22.80;96.10;;;;;;5090493;28;20447;-67
2023/07/28 10:43:36;;;;;;;1.00;0.80;;;22.80;95.40;;;;;;5088296;28;20437;-67
2023/07/28 10:46:02;;;;;;;1.00;0.65;;;22.70;96.60;;;;;;5090966;28;20516;-66
2023/07/28 10:48:30;;;;;;;1.43;0.80;;;22.60;96.80;;;;;;5088442;28;20931;-66
2023/07/28 10:50:57;;;;;;;1.60;0.90;;;22.60;97.10;;;;;;5088508;28;20727;-65
2023/07/28 10:53:24;;;;;;;1.80;0.90;;;22.40;97.30;;;;;;5087399;28;20867;-67
2023/07/28 10:55:51;;;;;;;1.10;0.90;;;22.30;99.20;;;;;;5085326;28;20939;-66
2023/07/28 10:58:18;;;;;;;1.27;1.00;;;22.10;99.30;;;;;;5086480;28;20780;-64
2023/07/28 11:00:44;;;;;;;1.00;0.70;;;22.10;99.40;;;;;;5084279;28;20500;-65
2023/07/28 11:03:13;;;;;;;0.95;0.70;;;22.20;98.70;;;;;;5087140;28;20425;-65
2023/07/28 11:05:41;;;;;;;1.00;0.77;;;22.30;98.80;;;;;;5081114;28;20952;-65
2023/07/28 11:08:08;;;;;;;1.30;0.73;;;22.50;97.80;;;;;;5087270;28;20426;-65
2023/07/28 11:10:36;;;;;;;1.10;0.90;;;22.70;97.80;;;;;;5090047;28;20421;-65
2023/07/28 11:13:04;;;;;;;1.00;0.70;;;22.80;96.80;;;;;;5083231;28;20455;-67
2023/07/28 11:15:31;;;;;;;1.90;0.80;;;23.00;96.00;;;;;;5085186;28;20429;-67
2023/07/28 11:17:58;;;;;;;0.90;0.70;;;23.00;95.70;;;;;;5085940;28;20419;-67
2023/07/28 11:20:26;;;;;;;1.50;0.60;;;23.10;96.00;;;;;;5087597;28;20425;-67
2023/07/28 11:22:56;;;;;;;1.77;1.10;;;23.00;95.60;;;;;;5088780;28;21164;-66
2023/07/28 11:25:23;;;;;;;1.10;1.00;;;23.00;96.20;;;;;;5087997;28;20499;-66
2023/07/28 11:27:51;;;;;;;1.20;0.93;;;22.80;99.40;;;;;;5089468;28;20433;-66
2023/07/28 11:30:19;;;;;;;0.90;0.70;;;22.60;99.90;;;;;;5089682;28;20962;-67
2023/07/28 11:32:47;;;;;;;2.08;0.98;;;22.40;99.90;;;;;;5088016;28;21606;-65
2023/07/28 11:35:16;;;;;;;1.30;1.20;;;22.20;99.90;;;;;;5104819;22;20951;-70
2023/07/28 11:37:46;;;;;;;1.20;1.10;;;22.20;99.90;;;;;;5082231;28;20911;-67
2023/07/28 11:40:16;;;;;;;1.20;0.90;;;22.20;99.90;;;;;;5080032;28;20929;-69
2023/07/28 11:42:45;;;;;;;1.20;0.90;;;22.20;99.90;;;;;;5085750;28;20438;-69
2023/07/28 11:45:15;;;;;;;1.10;1.00;;;22.30;99.90;;;;;;5082122;28;20409;-69
2023/07/28 11:47:55;;;;;;;1.80;1.00;;;22.30;98.80;;;;;;5082211;28;20434;-69
2023/07/28 11:50:26;;;;;;;2.00;0.90;;;22.30;98.00;;;;;;5071005;28;20421;-70
2023/07/28 11:52:53;;;;;;;1.10;0.70;;;22.40;97.60;;;;;;5074437;28;20430;-69
2023/07/28 11:55:22;;;;;;;1.50;0.90;;;22.50;97.90;;;;;;5080814;28;20930;-70
2023/07/28 11:57:49;;;;;;;1.30;0.80;;;22.60;95.70;;;;;;5074504;28;20431;-70
2023/07/28 12:00:17;;;;;;;1.10;0.80;;;22.70;96.00;;;;;;5073951;28;20432;-70
2023/07/28 12:02:45;;;;;;;1.00;0.80;;;22.90;95.50;;;;;;5080459;28;20701;-69
2023/07/28 12:05:15;;;;;;;0.80;0.60;;;23.20;94.20;;;;;;5077396;28;20439;-68
2023/07/28 12:07:47;;;;;;;1.30;0.60;;;23.50;93.40;;;;;;5082989;28;20427;-69
2023/07/28 12:10:14;;;;;;;1.00;0.70;;;23.70;92.30;;;;;;5072190;28;20503;-70
2023/07/28 12:12:47;;;;;;;1.08;0.68;;;23.90;91.70;;;;;;5074811;28;20443;-69
2023/07/28 12:15:23;;;;;;;1.20;0.63;;;24.10;93.40;;;;;;5087110;28;20437;-70
2023/07/28 12:18:18;;;;;;;1.48;0.90;;;24.40;90.80;;;;;;5072336;28;20440;-69
2023/07/28 12:20:47;;;;;;;1.10;0.60;;;24.60;90.70;;;;;;5035139;28;20448;-70
2023/07/28 12:23:15;;;;;;;0.93;0.60;;;24.60;89.60;;;;;;5076537;28;20459;-68
2023/07/28 12:25:42;;;;;;;0.90;0.70;;;24.60;90.20;;;;;;5079620;28;20427;-69
2023/07/28 12:28:11;;;;;;;0.90;0.80;;;24.60;86.80;;;;;;5085545;28;20812;-68
2023/07/28 12:30:38;;;;;;;1.10;0.70;;;24.40;87.80;;;;;;5083146;28;20410;-69
2023/07/28 12:33:05;;;;;;;1.50;0.90;;;24.40;89.20;;;;;;5077109;28;20961;-68
2023/07/28 12:35:34;;;;;;;0.90;0.80;;;24.20;87.70;;;;;;5076704;28;20518;-70
2023/07/28 12:38:04;;;;;;;1.60;0.80;;;24.10;89.30;;;;;;5079959;28;20770;-70
2023/07/28 12:40:31;;;;;;;1.40;0.88;;;23.90;90.50;;;;;;5075300;28;20424;-70
2023/07/28 12:42:59;;;;;;;0.98;0.75;;;23.90;89.60;;;;;;5061685;28;20427;-70
2023/07/28 12:45:27;;;;;;;1.30;0.70;;;23.80;89.40;;;;;;5077442;28;20776;-69
2023/07/28 12:47:54;;;;;;;1.15;0.70;;;23.70;89.90;;;;;;5067287;28;20429;-68
2023/07/28 12:50:21;;;;;;;1.30;0.70;;;23.70;90.60;;;;;;5083551;28;20424;-70